Time,TemperatureF,DewpointF,PressureIn,WindDirection,WindDirectionDegrees,WindSpeedMPH,WindSpeedGustMPH,Humidity,HourlyPrecipIn,Conditions,Clouds,dailyrainin,SoftwareType,DateUTC
2013-02-22 00:03:00,26.0,11.0,-100.00,SW,215,15.0,22.0,51,-99.99,,,-99.99,,2013-02-22 09:03:00,
2013-02-22 00:11:00,26.0,11.0,-100.00,SW,215,15.0,22.0,51,-99.99,,,-99.99,,2013-02-22 09:11:00,
2013-02-22 00:21:00,26.0,11.0,-100.00,SSW,210,9.0,17.0,53,-99.99,,,-99.99,,2013-02-22 09:21:00,
2013-02-22 00:31:00,26.0,11.0,-100.00,SSW,210,9.0,17.0,53,-99.99,,,-99.99,,2013-02-22 09:31:00,
2013-02-22 00:41:00,26.0,11.0,-100.00,SSW,210,9.0,17.0,53,-99.99,,,-99.99,,2013-02-22 09:41:00,
2013-02-22 00:51:00,28.0,11.0,-100.00,SW,215,5.0,13.0,48,-99.99,,,-99.99,,2013-02-22 09:51:00,
2013-02-22 01:01:00,28.0,11.0,-100.00,SW,215,5.0,13.0,48,-99.99,,,-99.99,,2013-02-22 10:01:00,
2013-02-22 01:11:00,28.0,11.0,-100.00,SW,215,5.0,13.0,48,-99.99,,,-99.99,,2013-02-22 10:11:00,
2013-02-22 01:21:00,28.0,10.0,-100.00,SSW,210,4.0,7.0,45,-99.99,,,-99.99,,2013-02-22 10:21:00,
2013-02-22 01:31:00,28.0,10.0,-100.00,SSW,210,4.0,7.0,45,-99.99,,,-99.99,,2013-02-22 10:31:00,
2013-02-22 01:42:00,28.0,10.0,-100.00,SSW,210,4.0,7.0,45,-99.99,,,-99.99,,2013-02-22 10:42:00,
2013-02-22 01:51:00,27.0,11.0,-100.00,SSW,205,7.0,13.0,49,-99.99,,,-99.99,,2013-02-22 10:51:00,
2013-02-22 02:01:00,27.0,11.0,-100.00,SSW,205,7.0,13.0,49,-99.99,,,-99.99,,2013-02-22 11:01:00,
2013-02-22 02:11:00,27.0,11.0,-100.00,SSW,205,7.0,13.0,49,-99.99,,,-99.99,,2013-02-22 11:11:00,
2013-02-22 02:21:00,27.0,11.0,-100.00,SSW,210,7.0,12.0,49,-99.99,,,-99.99,,2013-02-22 11:21:00,
2013-02-22 02:32:00,27.0,11.0,-100.00,SSW,210,7.0,12.0,49,-99.99,,,-99.99,,2013-02-22 11:32:00,
2013-02-22 02:42:00,27.0,11.0,-100.00,SSW,210,7.0,12.0,49,-99.99,,,-99.99,,2013-02-22 11:42:00,
2013-02-22 02:52:00,28.0,12.0,-100.00,SSW,205,9.0,13.0,50,-99.99,,,-99.99,,2013-02-22 11:52:00,
2013-02-22 03:02:00,28.0,12.0,-100.00,SSW,205,9.0,13.0,50,-99.99,,,-99.99,,2013-02-22 12:02:00,
2013-02-22 03:11:00,28.0,12.0,-100.00,SSW,205,9.0,13.0,50,-99.99,,,-99.99,,2013-02-22 12:11:00,
2013-02-22 03:21:00,28.0,13.0,-100.00,SSW,200,12.0,18.0,52,-99.99,,,-99.99,,2013-02-22 12:21:00,
2013-02-22 03:32:00,28.0,13.0,-100.00,SSW,200,12.0,18.0,52,-99.99,,,-99.99,,2013-02-22 12:32:00,
2013-02-22 03:42:00,28.0,13.0,-100.00,SSW,200,12.0,18.0,52,-99.99,,,-99.99,,2013-02-22 12:42:00,
2013-02-22 03:52:00,29.0,14.0,-100.00,South,190,4.0,21.0,54,-99.99,,,-99.99,,2013-02-22 12:52:00,
2013-02-22 04:01:00,29.0,14.0,-100.00,South,190,4.0,21.0,54,-99.99,,,-99.99,,2013-02-22 13:01:00,
2013-02-22 04:11:00,29.0,14.0,-100.00,South,190,4.0,21.0,54,-99.99,,,-99.99,,2013-02-22 13:11:00,
2013-02-22 04:22:00,28.0,16.0,-100.00,South,190,9.0,22.0,58,-99.99,,,-99.99,,2013-02-22 13:22:00,
2013-02-22 04:31:00,28.0,16.0,-100.00,South,190,9.0,22.0,58,-99.99,,,-99.99,,2013-02-22 13:31:00,
2013-02-22 04:41:00,28.0,16.0,-100.00,South,190,9.0,22.0,58,-99.99,,,-99.99,,2013-02-22 13:41:00,
2013-02-22 04:51:00,28.0,17.0,-100.00,SSW,205,7.0,10.0,63,-99.99,,,-99.99,,2013-02-22 13:51:00,
2013-02-22 05:01:00,28.0,17.0,-100.00,SSW,205,7.0,10.0,63,-99.99,,,-99.99,,2013-02-22 14:01:00,
2013-02-22 05:11:00,28.0,17.0,-100.00,SSW,205,7.0,10.0,63,-99.99,,,-99.99,,2013-02-22 14:11:00,
2013-02-22 05:21:00,28.0,18.0,-100.00,South,180,9.0,14.0,64,-99.99,,,-99.99,,2013-02-22 14:21:00,
2013-02-22 05:32:00,28.0,18.0,-100.00,South,180,9.0,14.0,64,-99.99,,,-99.99,,2013-02-22 14:32:00,
2013-02-22 05:42:00,28.0,18.0,-100.00,South,180,9.0,14.0,64,-99.99,,,-99.99,,2013-02-22 14:42:00,
2013-02-22 05:52:00,29.0,18.0,-100.00,SSW,195,11.0,14.0,64,-99.99,,,-99.99,,2013-02-22 14:52:00,
2013-02-22 06:01:00,29.0,18.0,-100.00,SSW,195,11.0,14.0,64,-99.99,,,-99.99,,2013-02-22 15:01:00,
2013-02-22 06:11:00,29.0,18.0,-100.00,SSW,195,11.0,14.0,64,-99.99,,,-99.99,,2013-02-22 15:11:00,
2013-02-22 06:21:00,29.0,18.0,-100.00,South,170,9.0,13.0,64,-99.99,,,-99.99,,2013-02-22 15:21:00,
2013-02-22 06:32:00,29.0,18.0,-100.00,South,170,9.0,13.0,64,-99.99,,,-99.99,,2013-02-22 15:32:00,
2013-02-22 06:41:00,29.0,18.0,-100.00,South,170,9.0,13.0,64,-99.99,,,-99.99,,2013-02-22 15:41:00,
2013-02-22 06:51:00,29.0,19.0,-100.00,South,175,11.0,16.0,64,-99.99,,,-99.99,,2013-02-22 15:51:00,
2013-02-22 07:01:00,29.0,19.0,-100.00,South,175,11.0,16.0,64,-99.99,,,-99.99,,2013-02-22 16:01:00,
2013-02-22 07:11:00,29.0,19.0,-100.00,South,175,11.0,16.0,64,-99.99,,,-99.99,,2013-02-22 16:11:00,
2013-02-22 07:21:00,28.0,18.0,-100.00,SSE,160,12.0,17.0,66,-99.99,,,-99.99,,2013-02-22 16:21:00,
2013-02-22 07:31:00,28.0,18.0,-100.00,SSE,160,12.0,17.0,66,-99.99,,,-99.99,,2013-02-22 16:31:00,
2013-02-22 07:41:00,28.0,18.0,-100.00,SSE,160,12.0,17.0,66,-99.99,,,-99.99,,2013-02-22 16:41:00,
2013-02-22 07:52:00,29.0,20.0,-100.00,SSW,195,8.0,14.0,68,-99.99,,,-99.99,,2013-02-22 16:52:00,
2013-02-22 08:01:00,29.0,20.0,-100.00,SSW,195,8.0,14.0,68,-99.99,,,-99.99,,2013-02-22 17:01:00,
2013-02-22 08:11:00,29.0,20.0,-100.00,SSW,195,8.0,14.0,68,-99.99,,,-99.99,,2013-02-22 17:11:00,
2013-02-22 08:21:00,30.0,22.0,-100.00,South,170,9.0,13.0,71,-99.99,,,-99.99,,2013-02-22 17:21:00,
2013-02-22 08:31:00,30.0,22.0,-100.00,South,170,9.0,13.0,71,-99.99,,,-99.99,,2013-02-22 17:31:00,
2013-02-22 08:42:00,30.0,22.0,-100.00,South,170,9.0,13.0,71,-99.99,,,-99.99,,2013-02-22 17:42:00,
2013-02-22 08:52:00,30.0,23.0,-100.00,SSE,160,16.0,20.0,75,-99.99,,,-99.99,,2013-02-22 17:52:00,
2013-02-22 09:01:00,30.0,23.0,-100.00,SSE,160,16.0,20.0,75,-99.99,,,-99.99,,2013-02-22 18:01:00,
2013-02-22 09:12:00,30.0,23.0,-100.00,SSE,160,16.0,20.0,75,-99.99,,,-99.99,,2013-02-22 18:12:00,
2013-02-22 09:22:00,30.0,26.0,-100.00,South,175,12.0,20.0,82,-99.99,,,-99.99,,2013-02-22 18:22:00,
2013-02-22 09:32:00,30.0,26.0,-100.00,South,175,12.0,20.0,82,-99.99,,,-99.99,,2013-02-22 18:32:00,
2013-02-22 09:42:00,30.0,26.0,-100.00,South,175,12.0,20.0,82,-99.99,,,-99.99,,2013-02-22 18:42:00,
2013-02-22 09:51:00,31.0,25.0,-100.00,South,175,12.0,17.0,79,-99.99,,,-99.99,,2013-02-22 18:51:00,
2013-02-22 10:01:00,31.0,25.0,-100.00,South,175,12.0,17.0,79,-99.99,,,-99.99,,2013-02-22 19:01:00,
2013-02-22 10:11:00,31.0,25.0,-100.00,South,175,12.0,17.0,79,-99.99,,,-99.99,,2013-02-22 19:11:00,
2013-02-22 10:21:00,32.0,24.0,-100.00,South,185,10.0,15.0,73,-99.99,,,-99.99,,2013-02-22 19:21:00,
2013-02-22 10:31:00,32.0,24.0,-100.00,South,185,10.0,15.0,73,-99.99,,,-99.99,,2013-02-22 19:31:00,
2013-02-22 10:41:00,32.0,24.0,-100.00,South,185,10.0,15.0,73,-99.99,,,-99.99,,2013-02-22 19:41:00,
2013-02-22 10:52:00,32.0,21.0,-100.00,WSW,245,7.0,16.0,63,-99.99,,,-99.99,,2013-02-22 19:52:00,
2013-02-22 11:01:00,32.0,21.0,-100.00,WSW,245,7.0,16.0,63,-99.99,,,-99.99,,2013-02-22 20:01:00,
2013-02-22 11:11:00,32.0,21.0,-100.00,WSW,245,7.0,16.0,63,-99.99,,,-99.99,,2013-02-22 20:11:00,
2013-02-22 11:21:00,33.0,20.0,-100.00,South,190,9.0,15.0,58,-99.99,,,-99.99,,2013-02-22 20:21:00,
2013-02-22 11:31:00,33.0,20.0,-100.00,South,190,9.0,15.0,58,-99.99,,,-99.99,,2013-02-22 20:31:00,
2013-02-22 11:41:00,33.0,20.0,-100.00,South,190,9.0,15.0,58,-99.99,,,-99.99,,2013-02-22 20:41:00,
2013-02-22 11:52:00,33.0,20.0,-100.00,SSW,200,9.0,17.0,59,-99.99,,,-99.99,,2013-02-22 20:52:00,
2013-02-22 12:01:00,33.0,20.0,-100.00,SSW,200,9.0,17.0,59,-99.99,,,-99.99,,2013-02-22 21:01:00,
2013-02-22 12:11:00,33.0,20.0,-100.00,SSW,200,9.0,17.0,59,-99.99,,,-99.99,,2013-02-22 21:11:00,
2013-02-22 12:21:00,34.0,18.0,-100.00,SSW,195,12.0,18.0,52,-99.99,,,-99.99,,2013-02-22 21:21:00,
2013-02-22 12:31:00,34.0,18.0,-100.00,SSW,195,12.0,18.0,52,-99.99,,,-99.99,,2013-02-22 21:31:00,
2013-02-22 12:42:00,34.0,18.0,-100.00,SSW,195,12.0,18.0,52,-99.99,,,-99.99,,2013-02-22 21:42:00,
2013-02-22 12:51:00,35.0,18.0,-100.00,South,185,7.0,11.0,48,-99.99,,,-99.99,,2013-02-22 21:51:00,
2013-02-22 13:01:00,35.0,18.0,-100.00,South,185,7.0,11.0,48,-99.99,,,-99.99,,2013-02-22 22:01:00,
2013-02-22 13:11:00,35.0,18.0,-100.00,South,185,7.0,11.0,48,-99.99,,,-99.99,,2013-02-22 22:11:00,
2013-02-22 13:21:00,35.0,17.0,-100.00,SSW,210,6.0,16.0,47,-99.99,,,-99.99,,2013-02-22 22:21:00,
2013-02-22 13:31:00,35.0,17.0,-100.00,SSW,210,6.0,16.0,47,-99.99,,,-99.99,,2013-02-22 22:31:00,
2013-02-22 13:41:00,35.0,17.0,-100.00,SSW,210,6.0,16.0,47,-99.99,,,-99.99,,2013-02-22 22:41:00,
2013-02-22 13:51:00,34.0,18.0,-100.00,SSW,210,9.0,16.0,51,-99.99,,,-99.99,,2013-02-22 22:51:00,
2013-02-22 14:01:00,34.0,18.0,-100.00,SSW,210,9.0,16.0,51,-99.99,,,-99.99,,2013-02-22 23:01:00,
2013-02-22 14:11:00,34.0,18.0,-100.00,SSW,210,9.0,16.0,51,-99.99,,,-99.99,,2013-02-22 23:11:00,
2013-02-22 14:21:00,33.0,17.0,-100.00,South,180,14.0,20.0,51,-99.99,,,-99.99,,2013-02-22 23:21:00,
2013-02-22 14:31:00,33.0,17.0,-100.00,South,180,14.0,20.0,51,-99.99,,,-99.99,,2013-02-22 23:31:00,
2013-02-22 14:41:00,33.0,17.0,-100.00,South,180,14.0,20.0,51,-99.99,,,-99.99,,2013-02-22 23:41:00,
2013-02-22 14:52:00,34.0,18.0,-100.00,SSW,205,9.0,13.0,50,-99.99,,,-99.99,,2013-02-22 23:52:00,
2013-02-22 15:01:00,34.0,18.0,-100.00,SSW,205,9.0,13.0,50,-99.99,,,-99.99,,2013-02-23 00:01:00,
2013-02-22 15:11:00,34.0,18.0,-100.00,SSW,205,9.0,13.0,50,-99.99,,,-99.99,,2013-02-23 00:11:00,
2013-02-22 15:21:00,35.0,18.0,-100.00,NNW,340,3.0,17.0,48,-99.99,,,-99.99,,2013-02-23 00:21:00,
2013-02-22 15:32:00,35.0,18.0,-100.00,NNW,340,3.0,17.0,48,-99.99,,,-99.99,,2013-02-23 00:32:00,
2013-02-22 15:41:00,35.0,18.0,-100.00,NNW,340,3.0,17.0,48,-99.99,,,-99.99,,2013-02-23 00:41:00,
2013-02-22 15:51:00,35.0,18.0,-100.00,South,175,8.0,13.0,48,-99.99,,,-99.99,,2013-02-23 00:51:00,
2013-02-22 16:01:00,35.0,18.0,-100.00,South,175,8.0,13.0,48,-99.99,,,-99.99,,2013-02-23 01:01:00,
2013-02-22 16:11:00,35.0,18.0,-100.00,South,175,8.0,13.0,48,-99.99,,,-99.99,,2013-02-23 01:11:00,
2013-02-22 16:21:00,36.0,18.0,-100.00,West,280,4.0,9.0,48,-99.99,,,-99.99,,2013-02-23 01:21:00,
2013-02-22 16:31:00,36.0,18.0,-100.00,West,280,4.0,9.0,48,-99.99,,,-99.99,,2013-02-23 01:31:00,
2013-02-22 16:41:00,36.0,18.0,-100.00,West,280,4.0,9.0,48,-99.99,,,-99.99,,2013-02-23 01:41:00,
2013-02-22 16:51:00,34.0,17.0,-100.00,SE,130,6.0,11.0,51,-99.99,,,-99.99,,2013-02-23 01:51:00,
2013-02-22 17:01:00,34.0,17.0,-100.00,SE,130,6.0,11.0,51,-99.99,,,-99.99,,2013-02-23 02:01:00,
2013-02-22 17:11:00,34.0,17.0,-100.00,SE,130,6.0,11.0,51,-99.99,,,-99.99,,2013-02-23 02:11:00,
2013-02-22 17:21:00,32.0,18.0,-100.00,SSW,200,9.0,12.0,54,-99.99,,,-99.99,,2013-02-23 02:21:00,
2013-02-22 17:31:00,32.0,18.0,-100.00,SSW,200,9.0,12.0,54,-99.99,,,-99.99,,2013-02-23 02:31:00,
2013-02-22 17:41:00,32.0,18.0,-100.00,SSW,200,9.0,12.0,54,-99.99,,,-99.99,,2013-02-23 02:41:00,
2013-02-22 17:52:00,33.0,18.0,-100.00,SSW,200,9.0,17.0,54,-99.99,,,-99.99,,2013-02-23 02:52:00,
2013-02-22 18:01:00,33.0,18.0,-100.00,SSW,200,9.0,17.0,54,-99.99,,,-99.99,,2013-02-23 03:01:00,
2013-02-22 18:11:00,33.0,18.0,-100.00,SSW,200,9.0,17.0,54,-99.99,,,-99.99,,2013-02-23 03:11:00,
2013-02-22 18:21:00,31.0,18.0,-100.00,South,190,9.0,11.0,56,-99.99,,,-99.99,,2013-02-23 03:21:00,
2013-02-22 18:31:00,31.0,18.0,-100.00,South,190,9.0,11.0,56,-99.99,,,-99.99,,2013-02-23 03:31:00,
2013-02-22 18:41:00,31.0,18.0,-100.00,South,190,9.0,11.0,56,-99.99,,,-99.99,,2013-02-23 03:41:00,
2013-02-22 18:51:00,32.0,17.0,-100.00,South,185,12.0,16.0,53,-99.99,,,-99.99,,2013-02-23 03:51:00,
2013-02-22 19:01:00,32.0,17.0,-100.00,South,185,12.0,16.0,53,-99.99,,,-99.99,,2013-02-23 04:01:00,
2013-02-22 19:11:00,32.0,17.0,-100.00,South,185,12.0,16.0,53,-99.99,,,-99.99,,2013-02-23 04:11:00,
2013-02-22 19:21:00,32.0,18.0,-100.00,South,185,10.0,12.0,57,-99.99,,,-99.99,,2013-02-23 04:21:00,
2013-02-22 19:31:00,32.0,18.0,-100.00,South,185,10.0,12.0,57,-99.99,,,-99.99,,2013-02-23 04:31:00,
2013-02-22 19:41:00,32.0,18.0,-100.00,South,185,10.0,12.0,57,-99.99,,,-99.99,,2013-02-23 04:41:00,
2013-02-22 19:51:00,31.0,19.0,-100.00,South,190,5.0,8.0,61,-99.99,,,-99.99,,2013-02-23 04:51:00,
2013-02-22 20:02:00,31.0,19.0,-100.00,South,190,5.0,8.0,61,-99.99,,,-99.99,,2013-02-23 05:02:00,
2013-02-22 20:11:00,31.0,19.0,-100.00,South,190,5.0,8.0,61,-99.99,,,-99.99,,2013-02-23 05:11:00,
2013-02-22 20:22:00,32.0,20.0,-100.00,SSW,195,9.0,12.0,61,-99.99,,,-99.99,,2013-02-23 05:22:00,
2013-02-22 20:32:00,32.0,20.0,-100.00,SSW,195,9.0,12.0,61,-99.99,,,-99.99,,2013-02-23 05:32:00,
2013-02-22 20:41:00,32.0,20.0,-100.00,SSW,195,9.0,12.0,61,-99.99,,,-99.99,,2013-02-23 05:41:00,
2013-02-22 20:52:00,31.0,21.0,-100.00,South,180,4.0,7.0,65,-99.99,,,-99.99,,2013-02-23 05:52:00,
2013-02-22 21:01:00,31.0,21.0,-100.00,South,180,4.0,7.0,65,-99.99,,,-99.99,,2013-02-23 06:01:00,
2013-02-22 21:11:00,31.0,21.0,-100.00,South,180,4.0,7.0,65,-99.99,,,-99.99,,2013-02-23 06:11:00,
2013-02-22 21:22:00,31.0,22.0,-100.00,South,170,9.0,11.0,68,-99.99,,,-99.99,,2013-02-23 06:22:00,
2013-02-22 21:31:00,31.0,22.0,-100.00,South,170,9.0,11.0,68,-99.99,,,-99.99,,2013-02-23 06:31:00,
2013-02-22 21:41:00,31.0,22.0,-100.00,South,170,9.0,11.0,68,-99.99,,,-99.99,,2013-02-23 06:41:00,
2013-02-22 21:51:00,31.0,23.0,-100.00,South,175,2.0,5.0,71,-99.99,,,-99.99,,2013-02-23 06:51:00,
2013-02-22 22:01:00,31.0,23.0,-100.00,South,175,2.0,5.0,71,-99.99,,,-99.99,,2013-02-23 07:01:00,
2013-02-22 22:11:00,31.0,23.0,-100.00,South,175,2.0,5.0,71,-99.99,,,-99.99,,2013-02-23 07:11:00,
2013-02-22 22:21:00,31.0,24.0,-100.00,NNW,340,4.0,6.0,76,-99.99,,,-99.99,,2013-02-23 07:21:00,
2013-02-22 22:31:00,31.0,24.0,-100.00,NNW,340,4.0,6.0,76,-99.99,,,-99.99,,2013-02-23 07:31:00,
2013-02-22 22:41:00,31.0,24.0,-100.00,NNW,340,4.0,6.0,76,-99.99,,,-99.99,,2013-02-23 07:41:00,
2013-02-22 22:51:00,28.0,25.0,-100.00,WSW,255,1.0,4.0,88,-99.99,,,-99.99,,2013-02-23 07:51:00,
2013-02-22 23:01:00,28.0,25.0,-100.00,WSW,255,1.0,4.0,88,-99.99,,,-99.99,,2013-02-23 08:01:00,
2013-02-22 23:11:00,28.0,25.0,-100.00,WSW,255,1.0,4.0,88,-99.99,,,-99.99,,2013-02-23 08:11:00,
2013-02-22 23:21:00,31.0,31.0,-100.00,South,190,12.0,22.0,97,-99.99,,,-99.99,,2013-02-23 08:21:00,
2013-02-22 23:31:00,31.0,31.0,-100.00,South,190,12.0,22.0,97,-99.99,,,-99.99,,2013-02-23 08:31:00,
2013-02-22 23:41:00,31.0,31.0,-100.00,South,190,12.0,22.0,97,-99.99,,,-99.99,,2013-02-23 08:41:00,
2013-02-22 23:52:00,31.0,30.0,-100.00,SE,145,12.0,21.0,95,-99.99,,,-99.99,,2013-02-23 08:52:00,